createdAt,value
2018-07-06T00:02:13.421Z,95.94
2018-07-06T00:04:57.145Z,95.53
2018-07-06T00:07:40.788Z,94.71
2018-07-06T00:10:24.375Z,95.43
2018-07-06T00:13:08.157Z,95.21
2018-07-06T00:15:51.798Z,94.32
2018-07-06T00:18:36.217Z,95.04
2018-07-06T00:21:19.862Z,95.22
2018-07-06T00:24:03.563Z,95.04
2018-07-06T00:26:47.205Z,96.08
2018-07-06T00:29:30.692Z,95.55
2018-07-06T00:32:14.375Z,94.43
2018-07-06T00:34:57.973Z,94.11
2018-07-06T00:37:41.612Z,95.28
2018-07-06T00:40:25.108Z,95.22
2018-07-06T00:43:08.658Z,94.67
2018-07-06T00:45:52.266Z,94.56
2018-07-06T00:48:35.917Z,95.30
2018-07-06T00:51:19.383Z,94.26
2018-07-06T00:54:02.878Z,94.54
2018-07-06T00:56:46.503Z,93.66
2018-07-06T00:59:30.261Z,93.54
2018-07-06T01:02:13.781Z,93.47
2018-07-06T01:04:57.491Z,94.38
2018-07-06T01:07:40.994Z,94.49
2018-07-06T01:10:24.547Z,93.40
2018-07-06T01:13:08.123Z,92.48
2018-07-06T01:15:51.795Z,93.51
2018-07-06T01:18:35.367Z,92.87
2018-07-06T01:21:18.878Z,93.60
2018-07-06T01:24:02.515Z,94.31
2018-07-06T01:26:46.063Z,94.43
2018-07-06T01:29:29.787Z,94.61
2018-07-06T01:32:13.486Z,94.79
2018-07-06T01:34:57.143Z,94.97
2018-07-06T01:37:40.843Z,95.37
2018-07-06T01:40:24.450Z,94.57
2018-07-06T01:43:08.268Z,94.73
2018-07-06T01:45:51.862Z,95.89
2018-07-06T01:48:35.365Z,95.42
2018-07-06T01:51:19.044Z,95.42
2018-07-06T01:54:02.723Z,96.26
2018-07-06T01:56:46.403Z,95.31
2018-07-06T01:59:30.022Z,95.19
2018-07-06T02:02:13.515Z,94.88
2018-07-06T02:04:57.147Z,94.76
2018-07-06T02:07:40.611Z,95.87
2018-07-06T02:10:24.138Z,96.33
2018-07-06T02:13:07.679Z,95.83
2018-07-06T02:15:51.178Z,95.85
2018-07-06T02:18:34.828Z,96.07
2018-07-06T02:21:18.526Z,95.40
2018-07-06T02:24:02.049Z,96.76
2018-07-06T02:26:45.711Z,94.66
2018-07-06T02:29:29.233Z,96.03
2018-07-06T02:32:12.771Z,94.35
2018-07-06T02:34:56.549Z,95.32
2018-07-06T02:37:40.085Z,95.25
2018-07-06T02:40:23.906Z,95.24
2018-07-06T02:43:07.560Z,94.72
2018-07-06T02:45:51.159Z,93.32
2018-07-06T02:48:34.680Z,93.71
2018-07-06T02:51:18.255Z,94.86
2018-07-06T02:54:01.898Z,94.17
2018-07-06T02:56:45.527Z,94.49
2018-07-06T02:59:29.270Z,95.03
2018-07-06T03:02:13.048Z,94.95
2018-07-06T03:04:56.720Z,94.60
2018-07-06T03:07:40.400Z,93.69
2018-07-06T03:10:24.120Z,93.71
2018-07-06T03:13:08.769Z,93.86
2018-07-06T03:15:52.368Z,93.37
2018-07-06T03:18:36.043Z,94.09
2018-07-06T03:21:19.725Z,93.81
2018-07-06T03:24:03.586Z,93.55
2018-07-06T03:26:47.220Z,93.94
2018-07-06T03:29:30.751Z,94.03
2018-07-06T03:32:14.184Z,94.80
2018-07-06T03:34:57.840Z,94.64
2018-07-06T03:37:41.354Z,94.87
2018-07-06T03:40:24.939Z,96.03
2018-07-06T03:43:08.547Z,95.65
2018-07-06T03:45:52.207Z,95.45
2018-07-06T03:48:35.794Z,95.77
2018-07-06T03:51:19.320Z,95.45
2018-07-06T03:54:02.946Z,96.86
2018-07-06T03:56:46.520Z,97.35
2018-07-06T03:59:30.098Z,98.07
2018-07-06T04:02:14.155Z,99.81
2018-07-06T04:04:57.756Z,99.09
2018-07-06T04:07:41.659Z,100.00
2018-07-06T04:10:25.201Z,100.00
2018-07-06T04:13:08.744Z,100.00
2018-07-06T04:15:52.446Z,100.00
2018-07-06T04:18:36.073Z,100.00
2018-07-06T04:21:19.689Z,100.00
2018-07-06T04:24:03.321Z,100.00
2018-07-06T04:26:46.938Z,100.00
2018-07-06T04:29:30.554Z,100.00
2018-07-06T04:32:13.984Z,100.00
2018-07-06T04:34:57.590Z,100.00
2018-07-06T04:37:41.165Z,100.00
2018-07-06T04:40:24.681Z,100.00
2018-07-06T04:43:08.227Z,100.00
2018-07-06T04:45:51.875Z,100.00
2018-07-06T04:48:35.228Z,100.00
2018-07-06T04:51:18.727Z,100.00
2018-07-06T04:54:02.365Z,100.00
2018-07-06T04:56:45.983Z,100.00
2018-07-06T04:59:29.526Z,100.00
2018-07-06T05:02:12.928Z,100.00
2018-07-06T05:04:56.555Z,100.00
2018-07-06T05:07:40.184Z,100.00
2018-07-06T05:10:23.705Z,100.00
2018-07-06T05:13:07.307Z,100.00
2018-07-06T05:15:50.901Z,100.00
2018-07-06T05:18:34.375Z,100.00
2018-07-06T05:21:18.000Z,100.00
2018-07-06T05:24:01.555Z,100.00
2018-07-06T05:26:45.316Z,100.00
2018-07-06T05:29:29.001Z,100.00
2018-07-06T05:32:12.569Z,100.00
2018-07-06T05:34:56.140Z,100.00
2018-07-06T05:37:39.636Z,100.00
2018-07-06T05:40:23.406Z,100.00
2018-07-06T05:43:08.017Z,100.00
2018-07-06T05:45:51.669Z,100.00
2018-07-06T05:48:35.203Z,100.00
2018-07-06T05:51:18.932Z,100.00
2018-07-06T05:54:02.549Z,100.00
2018-07-06T05:56:46.028Z,100.00
2018-07-06T05:59:29.560Z,100.00
2018-07-06T06:02:13.148Z,100.00
2018-07-06T06:04:56.819Z,100.00
2018-07-06T06:07:29.005Z,100.00
2018-07-06T06:10:01.062Z,100.00
2018-07-06T06:12:33.199Z,100.00
2018-07-06T06:15:05.335Z,100.00
2018-07-06T06:17:37.472Z,100.00
2018-07-06T06:20:13.437Z,100.00
2018-07-06T06:22:45.540Z,100.00
2018-07-06T06:25:17.666Z,100.00
2018-07-06T06:27:49.826Z,100.00
2018-07-06T06:30:21.934Z,100.00
2018-07-06T06:32:54.144Z,100.00
2018-07-06T06:35:26.264Z,100.00
2018-07-06T06:37:58.393Z,100.00
2018-07-06T06:40:30.513Z,100.00
2018-07-06T06:43:02.629Z,100.00
2018-07-06T06:45:34.795Z,100.00
2018-07-06T06:48:06.944Z,100.00
2018-07-06T06:50:39.015Z,100.00
2018-07-06T06:53:12.228Z,100.00
2018-07-06T06:55:44.397Z,100.00
2018-07-06T06:58:16.535Z,100.00
2018-07-06T07:00:48.713Z,100.00
2018-07-06T07:03:20.972Z,100.00
2018-07-06T07:05:53.135Z,100.00
2018-07-06T07:08:25.329Z,100.00
2018-07-06T07:10:57.804Z,100.00
2018-07-06T07:13:30.011Z,100.00
2018-07-06T07:16:02.202Z,100.00
2018-07-06T07:18:34.327Z,100.00
2018-07-06T07:21:07.321Z,100.00
2018-07-06T07:23:39.542Z,100.00
2018-07-06T07:26:11.599Z,100.00
2018-07-06T07:28:43.692Z,100.00
2018-07-06T07:31:15.852Z,100.00
2018-07-06T07:33:48.024Z,100.00
2018-07-06T07:36:20.148Z,100.00
2018-07-06T07:38:52.336Z,100.00
2018-07-06T07:41:24.529Z,100.00
2018-07-06T07:43:56.699Z,100.00
2018-07-06T07:46:28.912Z,100.00
2018-07-06T07:49:00.931Z,100.00
2018-07-06T07:51:55.281Z,100.00
2018-07-06T07:54:28.904Z,100.00
2018-07-06T07:57:01.836Z,100.00
2018-07-06T07:59:33.993Z,100.00
2018-07-06T08:02:06.347Z,100.00
2018-07-06T08:04:38.516Z,100.00
2018-07-06T08:07:10.663Z,100.00
2018-07-06T08:09:42.840Z,100.00
2018-07-06T08:12:15.933Z,100.00
2018-07-06T08:14:48.307Z,100.00
2018-07-06T08:17:20.472Z,100.00
2018-07-06T08:19:52.552Z,100.00
2018-07-06T08:22:24.711Z,100.00
2018-07-06T08:24:56.868Z,100.00
2018-07-06T08:27:28.974Z,100.00
2018-07-06T08:30:01.107Z,100.00
2018-07-06T08:32:33.161Z,100.00
2018-07-06T08:35:16.807Z,100.00
2018-07-06T08:38:02.078Z,100.00
2018-07-06T08:40:34.274Z,100.00
2018-07-06T08:43:06.524Z,100.00
2018-07-06T08:45:38.588Z,100.00
2018-07-06T08:48:10.715Z,100.00
2018-07-06T08:50:42.812Z,100.00
2018-07-06T08:53:14.963Z,100.00
2018-07-06T08:55:47.029Z,100.00
2018-07-06T08:58:19.124Z,99.68
2018-07-06T09:00:51.171Z,100.00
2018-07-06T09:03:23.199Z,100.00
2018-07-06T09:05:55.271Z,100.00
2018-07-06T09:08:27.374Z,100.00
2018-07-06T09:10:59.461Z,99.62
2018-07-06T09:13:31.833Z,98.33
2018-07-06T09:16:04.028Z,99.16
2018-07-06T09:18:36.160Z,98.03
2018-07-06T09:21:08.283Z,98.56
2018-07-06T09:23:40.324Z,96.67
2018-07-06T09:26:12.854Z,96.41
2018-07-06T09:28:51.348Z,97.65
2018-07-06T09:31:23.510Z,95.50
2018-07-06T09:33:55.496Z,96.22
2018-07-06T09:36:27.628Z,93.58
2018-07-06T09:38:59.695Z,96.29
2018-07-06T09:41:31.760Z,94.77
2018-07-06T09:44:04.374Z,93.39
2018-07-06T09:46:37.028Z,91.47
2018-07-06T09:49:09.146Z,91.40
2018-07-06T09:51:41.181Z,95.27
2018-07-06T09:54:13.501Z,91.65
2018-07-06T09:56:45.384Z,91.76
2018-07-06T09:59:17.552Z,91.67
2018-07-06T10:01:49.751Z,91.78
2018-07-06T10:04:23.006Z,90.48
2018-07-06T10:06:55.064Z,91.12
2018-07-06T10:09:27.183Z,89.85
2018-07-06T10:11:59.247Z,88.22
2018-07-06T10:14:31.300Z,90.14
2018-07-06T10:17:03.384Z,90.60
2018-07-06T10:19:35.493Z,92.16
2018-07-06T10:22:07.541Z,91.69
2018-07-06T10:24:39.595Z,88.54
2018-07-06T10:27:11.657Z,89.33
2018-07-06T10:30:19.518Z,91.88
2018-07-06T10:32:51.694Z,94.33
2018-07-06T10:35:23.768Z,91.59
2018-07-06T10:37:55.848Z,92.80
2018-07-06T10:40:27.889Z,92.44
2018-07-06T10:42:59.961Z,87.36
2018-07-06T10:45:32.010Z,90.78
2018-07-06T10:48:04.430Z,86.77
2018-07-06T10:50:36.467Z,84.23
2018-07-06T10:53:08.536Z,86.85
2018-07-06T10:55:40.621Z,90.32
2018-07-06T10:58:12.692Z,85.84
2018-07-06T11:00:44.772Z,85.53
2018-07-06T11:03:16.900Z,84.82
2018-07-06T11:05:49.033Z,83.67
2018-07-06T11:08:21.103Z,82.36
2018-07-06T11:10:53.227Z,81.96
2018-07-06T11:13:25.360Z,81.69
2018-07-06T11:15:57.476Z,81.57
2018-07-06T11:18:29.637Z,82.69
2018-07-06T11:21:01.820Z,81.46
2018-07-06T11:23:33.957Z,79.76
2018-07-06T11:26:06.152Z,80.82
2018-07-06T11:28:38.233Z,77.33
2018-07-06T11:31:10.454Z,74.87
2018-07-06T11:33:42.576Z,71.06
2018-07-06T11:36:14.731Z,74.24
2018-07-06T11:38:47.650Z,75.11
2018-07-06T11:41:19.836Z,71.60
2018-07-06T11:43:51.965Z,71.67
2018-07-06T11:46:24.249Z,70.22
2018-07-06T11:48:56.388Z,70.17
2018-07-06T11:51:28.587Z,68.52
2018-07-06T11:54:00.759Z,65.05
2018-07-06T11:56:32.824Z,62.69
2018-07-06T11:59:04.980Z,63.48
2018-07-06T12:04:08.787Z,64.00
2018-07-06T12:06:40.875Z,65.18
2018-07-06T12:09:13.047Z,61.99
2018-07-06T12:11:45.173Z,62.56
2018-07-06T12:14:17.286Z,59.28
2018-07-06T12:16:49.379Z,58.60
2018-07-06T12:19:21.516Z,59.16
2018-07-06T12:21:53.604Z,62.92
2018-07-06T12:24:25.826Z,67.08
2018-07-06T12:26:58.054Z,67.03
2018-07-06T12:29:30.179Z,65.21
2018-07-06T12:32:02.331Z,61.38
2018-07-06T12:34:34.418Z,53.74
2018-07-06T12:37:06.509Z,51.29
2018-07-06T12:39:38.607Z,57.58
2018-07-06T12:42:10.653Z,64.74
2018-07-06T12:44:43.095Z,68.12
2018-07-06T12:47:15.238Z,72.08
2018-07-06T12:49:47.327Z,72.19
2018-07-06T12:52:19.433Z,71.22
2018-07-06T12:54:51.548Z,71.52
2018-07-06T12:57:23.631Z,71.56
2018-07-06T12:59:55.696Z,71.55
2018-07-06T13:02:27.800Z,70.91
2018-07-06T13:04:59.979Z,72.35
2018-07-06T13:07:32.185Z,71.04
2018-07-06T13:10:04.657Z,71.08
2018-07-06T13:12:36.729Z,73.77
2018-07-06T13:15:08.894Z,71.46
2018-07-06T13:17:40.940Z,72.72
2018-07-06T13:20:13.508Z,73.25
2018-07-06T13:22:45.605Z,72.73
2018-07-06T13:25:17.654Z,73.46
2018-07-06T13:27:49.747Z,73.64
2018-07-06T13:30:21.887Z,71.49
2018-07-06T13:32:54.007Z,69.09
2018-07-06T13:35:26.143Z,67.27
2018-07-06T13:37:58.394Z,66.71
2018-07-06T13:40:30.607Z,66.73
2018-07-06T13:43:02.680Z,64.77
2018-07-06T13:45:34.839Z,63.37
2018-07-06T13:48:06.957Z,62.34
2018-07-06T13:50:39.052Z,61.21
2018-07-06T13:53:11.115Z,61.53
2018-07-06T13:55:43.176Z,61.14
2018-07-06T13:58:15.239Z,59.65
2018-07-06T14:00:47.386Z,60.33
2018-07-06T14:03:19.460Z,61.07
2018-07-06T14:05:51.640Z,59.26
2018-07-06T14:08:23.680Z,57.78
2018-07-06T14:10:55.731Z,61.05
2018-07-06T14:13:27.772Z,62.10
2018-07-06T14:15:59.858Z,62.86
2018-07-06T14:18:31.942Z,62.13
2018-07-06T14:21:04.028Z,61.74
2018-07-06T14:23:36.070Z,65.39
2018-07-06T14:26:08.199Z,65.03
2018-07-06T14:28:40.268Z,63.39
2018-07-06T14:31:12.411Z,64.89
2018-07-06T14:33:44.472Z,64.69
2018-07-06T14:36:16.571Z,65.88
2018-07-06T14:38:48.631Z,65.26
2018-07-06T14:41:20.756Z,65.41
2018-07-06T14:43:52.893Z,65.08
2018-07-06T14:46:25.056Z,64.13
2018-07-06T14:48:57.171Z,62.14
2018-07-06T14:51:29.304Z,62.74
2018-07-06T14:54:01.368Z,62.50
2018-07-06T14:56:33.449Z,62.00
2018-07-06T14:59:05.719Z,61.88
2018-07-06T15:01:37.800Z,60.41
2018-07-06T15:04:09.891Z,54.65
2018-07-06T15:06:42.064Z,52.21
2018-07-06T15:09:14.094Z,52.99
2018-07-06T15:11:46.175Z,51.10
2018-07-06T15:14:18.376Z,54.48
2018-07-06T15:16:50.500Z,53.13
2018-07-06T15:19:22.544Z,55.86
2018-07-06T15:21:54.659Z,57.06
2018-07-06T15:24:26.848Z,59.32
2018-07-06T15:26:58.907Z,62.05
2018-07-06T15:29:30.964Z,62.59
2018-07-06T15:32:03.100Z,63.10
2018-07-06T15:34:35.180Z,62.71
2018-07-06T15:37:07.271Z,61.45
2018-07-06T15:39:39.356Z,56.33
2018-07-06T15:42:11.401Z,52.32
2018-07-06T15:44:43.448Z,45.44
2018-07-06T15:47:15.524Z,42.65
2018-07-06T15:49:47.636Z,45.29
2018-07-06T15:52:19.787Z,48.64
2018-07-06T15:54:51.914Z,48.50
2018-07-06T15:57:24.046Z,51.31
2018-07-06T15:59:56.214Z,49.56
2018-07-06T16:02:28.276Z,53.55
2018-07-06T16:05:00.425Z,53.83
2018-07-06T16:07:32.497Z,55.46
2018-07-06T16:10:04.664Z,54.70
2018-07-06T16:12:37.219Z,55.83
2018-07-06T16:15:09.581Z,56.21
2018-07-06T16:17:42.080Z,55.25
2018-07-06T16:20:14.167Z,54.50
2018-07-06T16:22:46.287Z,55.16
2018-07-06T16:25:18.363Z,55.80
2018-07-06T16:27:50.475Z,56.60
2018-07-06T16:30:22.499Z,58.21
2018-07-06T16:32:54.575Z,57.86
2018-07-06T16:35:26.644Z,58.36
2018-07-06T16:37:58.699Z,59.99
2018-07-06T16:40:30.768Z,59.46
2018-07-06T16:43:02.878Z,59.30
2018-07-06T16:45:35.018Z,61.37
2018-07-06T16:48:07.072Z,60.52
2018-07-06T16:50:39.160Z,60.89
2018-07-06T16:53:11.391Z,62.65
2018-07-06T16:55:43.465Z,62.83
2018-07-06T16:58:15.521Z,62.17
2018-07-06T17:00:47.646Z,64.05
2018-07-06T17:03:19.754Z,66.07
2018-07-06T17:05:51.879Z,66.81
2018-07-06T17:08:23.949Z,66.46
2018-07-06T17:10:56.027Z,66.91
2018-07-06T17:13:28.101Z,66.83
2018-07-06T17:16:00.182Z,67.78
2018-07-06T17:18:32.234Z,68.20
2018-07-06T17:21:05.458Z,68.35
2018-07-06T17:23:37.610Z,68.31
2018-07-06T17:26:09.682Z,67.74
2018-07-06T17:28:42.795Z,69.11
2018-07-06T17:31:14.889Z,68.75
2018-07-06T17:33:46.953Z,69.18
2018-07-06T17:36:19.019Z,68.89
2018-07-06T17:38:51.123Z,70.51
2018-07-06T17:41:23.286Z,70.88
2018-07-06T17:43:55.353Z,69.90
2018-07-06T17:46:27.442Z,70.16
2018-07-06T17:48:59.587Z,69.72
2018-07-06T17:51:31.681Z,69.80
2018-07-06T17:54:03.749Z,70.20
2018-07-06T17:56:35.791Z,69.46
2018-07-06T17:59:07.890Z,69.33
2018-07-06T18:01:40.059Z,70.09
2018-07-06T18:04:12.168Z,70.78
2018-07-06T18:06:44.252Z,72.28
2018-07-06T18:09:16.445Z,71.74
2018-07-06T18:11:48.539Z,73.01
2018-07-06T18:14:20.710Z,72.60
2018-07-06T18:16:52.824Z,73.56
2018-07-06T18:19:24.960Z,73.56
2018-07-06T18:21:57.509Z,74.54
2018-07-06T18:24:29.632Z,74.81
2018-07-06T18:29:59.941Z,75.79
2018-07-06T18:32:32.060Z,75.50
2018-07-06T18:35:04.264Z,76.49
2018-07-06T18:37:36.759Z,76.05
2018-07-06T18:40:08.912Z,76.22
2018-07-06T18:42:40.968Z,75.78
2018-07-06T18:45:13.128Z,77.60
2018-07-06T18:47:45.269Z,76.95
2018-07-06T18:50:17.526Z,79.64
2018-07-06T18:52:49.693Z,77.98
2018-07-06T18:55:21.958Z,79.11
2018-07-06T18:57:54.125Z,82.78
2018-07-06T19:00:26.352Z,85.26
2018-07-06T19:02:58.458Z,87.89
2018-07-06T19:05:31.670Z,90.11
2018-07-06T19:08:03.887Z,91.76
2018-07-06T19:10:36.101Z,83.61
2018-07-06T19:13:08.286Z,88.73
2018-07-06T19:15:40.486Z,89.92
2018-07-06T19:18:12.683Z,91.34
2018-07-06T19:20:44.896Z,91.00
2018-07-06T19:23:17.077Z,91.85
2018-07-06T19:25:49.325Z,92.02
2018-07-06T19:28:21.483Z,91.33
2018-07-06T19:30:54.787Z,90.83
2018-07-06T19:33:26.883Z,91.44
2018-07-06T19:35:59.057Z,92.15
2018-07-06T19:38:31.230Z,91.54
2018-07-06T19:41:03.383Z,91.38
2018-07-06T19:43:35.522Z,92.04
2018-07-06T19:46:07.717Z,92.71
2018-07-06T19:48:39.862Z,93.12
2018-07-06T19:51:12.297Z,93.63
2018-07-06T19:53:44.367Z,93.15
2018-07-06T19:56:16.529Z,92.98
2018-07-06T19:58:48.608Z,92.71
2018-07-06T20:01:20.734Z,92.88
2018-07-06T20:03:52.829Z,93.59
2018-07-06T20:06:24.895Z,93.81
2018-07-06T20:08:56.973Z,94.29
2018-07-06T20:11:29.086Z,94.63
2018-07-06T20:14:01.234Z,95.70
2018-07-06T20:16:33.376Z,95.28
2018-07-06T20:19:05.445Z,96.12
2018-07-06T20:21:37.779Z,97.06
2018-07-06T20:24:09.887Z,98.44
2018-07-06T20:26:42.004Z,99.71
2018-07-06T20:29:14.060Z,100.00
2018-07-06T20:31:46.232Z,100.00
2018-07-06T20:34:18.310Z,100.00
2018-07-06T20:36:50.372Z,100.00
2018-07-06T20:39:22.478Z,100.00
2018-07-06T20:41:56.651Z,100.00
2018-07-06T20:44:28.735Z,100.00
2018-07-06T20:47:00.979Z,100.00
2018-07-06T20:49:33.009Z,100.00
2018-07-06T20:52:05.197Z,100.00
2018-07-06T20:54:37.299Z,100.00
2018-07-06T20:57:09.426Z,100.00
2018-07-06T20:59:41.499Z,100.00
2018-07-06T21:02:13.819Z,99.91
2018-07-06T21:04:45.955Z,98.27
2018-07-06T21:07:18.052Z,97.97
2018-07-06T21:09:50.169Z,98.30
2018-07-06T21:12:22.253Z,98.81
2018-07-06T21:14:54.319Z,98.27
2018-07-06T21:17:26.500Z,98.66
2018-07-06T21:19:58.660Z,99.55
2018-07-06T21:22:30.809Z,99.39
2018-07-06T21:25:02.912Z,99.96
2018-07-06T21:27:35.085Z,99.97
2018-07-06T21:30:07.234Z,100.00
2018-07-06T21:32:39.294Z,100.00
2018-07-06T21:35:11.454Z,100.00
2018-07-06T21:37:43.608Z,100.00
2018-07-06T21:40:15.664Z,100.00
2018-07-06T21:42:47.873Z,100.00
2018-07-06T21:45:20.068Z,100.00
2018-07-06T21:47:52.231Z,100.00
2018-07-06T21:50:24.361Z,100.00
2018-07-06T21:52:56.505Z,100.00
2018-07-06T21:55:28.621Z,100.00
2018-07-06T21:58:00.702Z,100.00
2018-07-06T22:00:37.925Z,100.00
2018-07-06T22:03:10.805Z,100.00
2018-07-06T22:05:42.919Z,100.00
2018-07-06T22:08:16.001Z,100.00
2018-07-06T22:10:48.086Z,100.00
2018-07-06T22:13:20.251Z,100.00
2018-07-06T22:15:52.406Z,100.00
2018-07-06T22:18:24.581Z,100.00
2018-07-06T22:20:56.758Z,100.00
2018-07-06T22:23:28.935Z,100.00
2018-07-06T22:26:01.047Z,99.52
2018-07-06T22:28:33.159Z,98.79
2018-07-06T22:31:05.416Z,97.95
2018-07-06T22:33:37.599Z,98.83
2018-07-06T22:36:09.738Z,98.86
2018-07-06T22:38:41.887Z,98.96
2018-07-06T22:41:13.993Z,98.69
2018-07-06T22:43:46.136Z,99.17
2018-07-06T22:46:18.247Z,99.35
2018-07-06T22:48:50.424Z,99.57
2018-07-06T22:51:22.560Z,100.00
2018-07-06T22:53:54.703Z,100.00
2018-07-06T22:56:26.820Z,100.00
2018-07-06T22:58:58.940Z,100.00
2018-07-06T23:01:31.112Z,100.00
2018-07-06T23:04:03.292Z,100.00
2018-07-06T23:06:35.534Z,100.00
2018-07-06T23:09:07.905Z,100.00
2018-07-06T23:11:39.956Z,100.00
2018-07-06T23:14:12.077Z,100.00
2018-07-06T23:16:44.188Z,100.00
2018-07-06T23:19:16.329Z,100.00
2018-07-06T23:21:48.457Z,100.00
2018-07-06T23:24:20.530Z,100.00
2018-07-06T23:26:52.678Z,100.00
2018-07-06T23:29:24.819Z,100.00
2018-07-06T23:31:56.888Z,100.00
2018-07-06T23:34:28.982Z,100.00
2018-07-06T23:37:01.081Z,100.00
2018-07-06T23:39:33.489Z,100.00
2018-07-06T23:42:05.810Z,100.00
2018-07-06T23:44:38.823Z,100.00
2018-07-06T23:47:11.255Z,100.00
2018-07-06T23:49:43.423Z,99.86
2018-07-06T23:52:15.886Z,99.35
2018-07-06T23:54:48.427Z,99.57
2018-07-06T23:57:20.796Z,99.54
2018-07-06T23:59:53.567Z,100.00
